Time,TemperatureF,DewpointF,PressureIn,WindDirection,WindDirectionDegrees,WindSpeedMPH,WindSpeedGustMPH,Humidity,HourlyPrecipIn,Conditions,Clouds,dailyrainin,SoftwareType,DateUTC
2013-02-18 00:14:00,29.3,23.0,29.86,SE,128,14.0,16.0,77,0.00,,,0.00,weatherlink.com 1.10,2013-02-18 06:14:00,
2013-02-18 00:29:00,29.7,23.0,29.86,SE,128,11.0,20.0,76,0.00,,,0.00,weatherlink.com 1.10,2013-02-18 06:29:00,
2013-02-18 00:44:00,29.8,23.0,29.85,SE,130,15.0,19.0,76,0.00,,,0.00,weatherlink.com 1.10,2013-02-18 06:44:00,
2013-02-18 00:59:00,30.3,24.0,29.85,SE,139,13.0,18.0,76,0.00,,,0.00,weatherlink.com 1.10,2013-02-18 06:59:00,
2013-02-18 01:14:00,30.1,23.0,29.83,SSE,155,14.0,17.0,76,0.00,,,0.00,weatherlink.com 1.10,2013-02-18 07:14:00,
2013-02-18 01:29:00,30.3,24.0,29.82,ESE,123,14.0,16.0,76,0.00,,,0.00,weatherlink.com 1.10,2013-02-18 07:29:00,
2013-02-18 01:44:00,30.4,24.0,29.81,SE,140,9.0,17.0,76,0.00,,,0.00,weatherlink.com 1.10,2013-02-18 07:44:00,
2013-02-18 01:59:00,30.2,24.0,29.80,SE,145,11.0,15.0,77,0.00,,,0.00,weatherlink.com 1.10,2013-02-18 07:59:00,
2013-02-18 02:14:00,30.4,24.0,29.79,SE,130,15.0,17.0,77,0.00,,,0.00,weatherlink.com 1.10,2013-02-18 08:14:00,
2013-02-18 02:29:00,30.8,24.0,29.77,SE,126,12.0,19.0,76,0.00,,,0.00,weatherlink.com 1.10,2013-02-18 08:29:00,
2013-02-18 02:44:00,31.0,24.0,29.77,SE,140,14.0,17.0,76,0.00,,,0.00,weatherlink.com 1.10,2013-02-18 08:44:00,
2013-02-18 02:59:00,31.2,24.0,29.76,SSE,150,11.0,19.0,76,0.00,,,0.00,weatherlink.com 1.10,2013-02-18 08:59:00,
2013-02-18 03:14:00,31.2,24.0,29.75,SE,144,11.0,18.0,76,0.00,,,0.00,weatherlink.com 1.10,2013-02-18 09:14:00,
2013-02-18 03:29:00,31.1,24.0,29.74,SE,134,12.0,16.0,76,0.00,,,0.00,weatherlink.com 1.10,2013-02-18 09:29:00,
2013-02-18 03:44:00,31.0,25.0,29.73,SE,140,14.0,18.0,77,0.00,,,0.00,weatherlink.com 1.10,2013-02-18 09:44:00,
2013-02-18 03:59:00,31.0,25.0,29.72,SSE,151,10.0,19.0,77,0.00,,,0.00,weatherlink.com 1.10,2013-02-18 09:59:00,
2013-02-18 04:14:00,30.8,25.0,29.72,SSE,150,9.0,16.0,78,0.00,,,0.00,weatherlink.com 1.10,2013-02-18 10:14:00,
2013-02-18 04:29:00,30.6,25.0,29.71,SE,135,11.0,15.0,78,0.00,,,0.00,weatherlink.com 1.10,2013-02-18 10:29:00,
2013-02-18 04:44:00,30.5,25.0,29.70,SE,146,9.0,15.0,79,0.00,,,0.00,weatherlink.com 1.10,2013-02-18 10:44:00,
2013-02-18 04:59:00,30.3,25.0,29.70,SE,145,10.0,13.0,79,0.00,,,0.00,weatherlink.com 1.10,2013-02-18 10:59:00,
2013-02-18 05:14:00,30.1,25.0,29.69,SSE,151,9.0,13.0,80,0.00,,,0.00,weatherlink.com 1.10,2013-02-18 11:14:00,
2013-02-18 05:29:00,30.1,25.0,29.69,SE,139,12.0,15.0,80,0.00,,,0.00,weatherlink.com 1.10,2013-02-18 11:29:00,
2013-02-18 05:44:00,30.1,25.0,29.67,SE,143,11.0,17.0,80,0.00,,,0.00,weatherlink.com 1.10,2013-02-18 11:44:00,
2013-02-18 05:59:00,30.2,25.0,29.67,SSE,150,8.0,16.0,81,0.00,,,0.00,weatherlink.com 1.10,2013-02-18 11:59:00,
2013-02-18 06:14:00,30.1,25.0,29.66,SE,128,9.0,13.0,82,0.00,,,0.00,weatherlink.com 1.10,2013-02-18 12:14:00,
2013-02-18 06:29:00,30.1,25.0,29.66,SE,138,9.0,14.0,82,0.00,,,0.00,weatherlink.com 1.10,2013-02-18 12:29:00,
2013-02-18 06:45:00,30.2,25.0,29.65,SSE,161,9.0,16.0,82,0.00,,,0.00,weatherlink.com 1.10,2013-02-18 12:45:00,
2013-02-18 07:15:00,30.8,26.0,29.65,SE,142,10.0,15.0,82,0.00,,,0.00,weatherlink.com 1.10,2013-02-18 13:15:00,
2013-02-18 07:30:00,30.9,26.0,29.65,SSE,152,6.0,13.0,83,0.00,,,0.00,weatherlink.com 1.10,2013-02-18 13:30:00,
2013-02-18 07:45:00,31.1,27.0,29.65,SE,141,5.0,11.0,83,0.00,,,0.00,weatherlink.com 1.10,2013-02-18 13:45:00,
2013-02-18 08:00:00,31.4,27.0,29.64,SSE,168,9.0,11.0,84,0.00,,,0.00,weatherlink.com 1.10,2013-02-18 14:00:00,
2013-02-18 08:15:00,32.2,28.0,29.64,SSE,155,8.0,15.0,83,0.00,,,0.00,weatherlink.com 1.10,2013-02-18 14:15:00,
2013-02-18 08:30:00,32.8,28.0,29.63,South,189,2.0,10.0,83,0.00,,,0.00,weatherlink.com 1.10,2013-02-18 14:30:00,
2013-02-18 08:45:00,33.4,29.0,29.63,SSE,168,7.0,13.0,83,0.00,,,0.00,weatherlink.com 1.10,2013-02-18 14:45:00,
2013-02-18 09:00:00,34.2,30.0,29.62,ESE,117,10.0,10.0,83,0.00,,,0.00,weatherlink.com 1.10,2013-02-18 15:00:00,
2013-02-18 09:15:00,35.0,30.0,29.61,SE,134,8.0,14.0,82,0.00,,,0.00,weatherlink.com 1.10,2013-02-18 15:15:00,
2013-02-18 09:30:00,35.9,31.0,29.61,SSE,155,7.0,17.0,82,0.00,,,0.00,weatherlink.com 1.10,2013-02-18 15:30:00,
2013-02-18 09:45:00,36.6,31.0,29.60,SSE,152,11.0,15.0,81,0.00,,,0.00,weatherlink.com 1.10,2013-02-18 15:45:00,
2013-02-18 10:00:00,37.9,32.0,29.60,SE,138,9.0,16.0,80,0.00,,,0.00,weatherlink.com 1.10,2013-02-18 16:00:00,
2013-02-18 10:15:00,39.1,33.0,29.60,SE,137,7.0,14.0,79,0.00,,,0.00,weatherlink.com 1.10,2013-02-18 16:15:00,
2013-02-18 10:30:00,40.3,34.0,29.59,SSE,164,4.0,14.0,78,0.00,,,0.00,weatherlink.com 1.10,2013-02-18 16:30:00,
2013-02-18 10:45:00,40.9,35.0,29.58,WSW,248,7.0,13.0,78,0.00,,,0.00,weatherlink.com 1.10,2013-02-18 16:45:00,
2013-02-18 11:00:00,41.7,35.0,29.57,ESE,123,13.0,13.0,78,0.00,,,0.00,weatherlink.com 1.10,2013-02-18 17:00:00,
2013-02-18 11:15:00,42.8,36.0,29.56,South,191,5.0,14.0,76,0.00,,,0.00,weatherlink.com 1.10,2013-02-18 17:15:00,
2013-02-18 11:30:00,43.1,36.0,29.55,SSE,153,9.0,17.0,77,0.00,,,0.00,weatherlink.com 1.10,2013-02-18 17:30:00,
2013-02-18 11:45:00,43.9,36.0,29.55,East,82,14.0,14.0,75,0.00,,,0.00,weatherlink.com 1.10,2013-02-18 17:45:00,
2013-02-18 12:00:00,44.5,37.0,29.54,SSE,149,6.0,12.0,76,0.00,,,0.00,weatherlink.com 1.10,2013-02-18 18:00:00,
2013-02-18 12:15:00,44.7,38.0,29.54,ESE,106,5.0,13.0,76,0.00,,,0.00,weatherlink.com 1.10,2013-02-18 18:15:00,
2013-02-18 12:31:00,46.1,39.0,29.52,ESE,105,5.0,11.0,75,0.00,,,0.00,weatherlink.com 1.10,2013-02-18 18:31:00,
2013-02-18 12:46:00,47.7,39.0,29.51,SE,146,4.0,11.0,73,0.00,,,0.00,weatherlink.com 1.10,2013-02-18 18:46:00,
2013-02-18 13:01:00,47.2,40.0,29.50,SE,136,6.0,9.0,75,0.00,,,0.00,weatherlink.com 1.10,2013-02-18 19:01:00,
2013-02-18 13:16:00,47.9,40.0,29.50,SSW,193,8.0,12.0,75,0.00,,,0.00,weatherlink.com 1.10,2013-02-18 19:16:00,
2013-02-18 13:31:00,48.0,40.0,29.49,SSW,194,4.0,10.0,73,0.00,,,0.00,weatherlink.com 1.10,2013-02-18 19:31:00,
2013-02-18 13:46:00,47.9,40.0,29.49,SSW,202,6.0,9.0,73,0.00,,,0.00,weatherlink.com 1.10,2013-02-18 19:46:00,
2013-02-18 14:01:00,46.9,40.0,29.48,SSW,194,1.0,4.0,76,0.00,,,0.00,weatherlink.com 1.10,2013-02-18 20:01:00,
2013-02-18 14:16:00,46.8,40.0,29.48,South,180,0.0,4.0,76,0.00,,,0.00,weatherlink.com 1.10,2013-02-18 20:16:00,
2013-02-18 14:46:00,44.7,40.0,29.48,SSE,151,6.0,6.0,83,0.01,,,0.01,weatherlink.com 1.10,2013-02-18 20:46:00,
2013-02-18 15:01:00,44.3,41.0,29.47,SSE,168,3.0,7.0,87,0.03,,,0.03,weatherlink.com 1.10,2013-02-18 21:01:00,
2013-02-18 15:16:00,42.9,40.0,29.46,SSE,160,3.0,6.0,90,0.03,,,0.03,weatherlink.com 1.10,2013-02-18 21:16:00,
2013-02-18 15:31:00,42.3,40.0,29.46,South,169,1.0,5.0,91,0.04,,,0.04,weatherlink.com 1.10,2013-02-18 21:31:00,
2013-02-18 15:46:00,41.5,39.0,29.45,South,174,1.0,4.0,92,0.03,,,0.04,weatherlink.com 1.10,2013-02-18 21:46:00,
2013-02-18 16:01:00,41.1,39.0,29.45,SSW,192,4.0,5.0,93,0.02,,,0.05,weatherlink.com 1.10,2013-02-18 22:01:00,
2013-02-18 16:16:00,41.7,40.0,29.45,West,263,1.0,4.0,94,0.04,,,0.07,weatherlink.com 1.10,2013-02-18 22:16:00,
2013-02-18 16:31:00,41.2,40.0,29.45,West,263,2.0,3.0,94,0.04,,,0.08,weatherlink.com 1.10,2013-02-18 22:31:00,
2013-02-18 16:46:00,40.7,39.0,29.46,West,273,2.0,4.0,93,0.06,,,0.10,weatherlink.com 1.10,2013-02-18 22:46:00,
2013-02-18 17:01:00,38.6,37.0,29.46,WNW,295,1.0,4.0,92,0.08,,,0.13,weatherlink.com 1.10,2013-02-18 23:01:00,
2013-02-18 17:16:00,37.2,35.0,29.46,WNW,294,1.0,4.0,93,0.08,,,0.15,weatherlink.com 1.10,2013-02-18 23:16:00,
2013-02-18 17:31:00,36.1,34.0,29.46,WNW,301,4.0,9.0,93,0.08,,,0.16,weatherlink.com 1.10,2013-02-18 23:31:00,
2013-02-18 17:46:00,34.6,33.0,29.47,WNW,287,2.0,5.0,93,0.07,,,0.17,weatherlink.com 1.10,2013-02-18 23:46:00,
2013-02-18 18:01:00,33.2,32.0,29.47,WNW,294,1.0,3.0,94,0.04,,,0.17,weatherlink.com 1.10,2013-02-19 00:01:00,
2013-02-18 18:16:00,32.5,31.0,29.47,WNW,294,2.0,2.0,95,0.02,,,0.17,weatherlink.com 1.10,2013-02-19 00:16:00,
2013-02-18 18:31:00,32.4,31.0,29.47,WNW,292,1.0,2.0,95,0.01,,,0.17,weatherlink.com 1.10,2013-02-19 00:31:00,
2013-02-18 18:46:00,32.4,31.0,29.47,West,274,1.0,4.0,96,0.00,,,0.17,weatherlink.com 1.10,2013-02-19 00:46:00,
2013-02-18 19:01:00,32.3,31.0,29.48,WNW,298,1.0,3.0,96,0.00,,,0.17,weatherlink.com 1.10,2013-02-19 01:01:00,
2013-02-18 19:16:00,32.1,31.0,29.47,WNW,286,2.0,4.0,96,0.00,,,0.17,weatherlink.com 1.10,2013-02-19 01:16:00,
2013-02-18 19:31:00,31.7,31.0,29.48,NW,310,3.0,3.0,96,0.00,,,0.17,weatherlink.com 1.10,2013-02-19 01:31:00,
2013-02-18 19:46:00,31.1,30.0,29.48,WSW,250,1.0,6.0,96,0.00,,,0.17,weatherlink.com 1.10,2013-02-19 01:46:00,
2013-02-18 20:01:00,29.8,29.0,29.48,West,276,3.0,4.0,96,0.00,,,0.17,weatherlink.com 1.10,2013-02-19 02:01:00,
2013-02-18 20:16:00,29.1,28.0,29.49,WNW,282,2.0,5.0,96,0.00,,,0.17,weatherlink.com 1.10,2013-02-19 02:16:00,
2013-02-18 20:31:00,27.8,26.0,29.49,West,279,1.0,5.0,94,0.00,,,0.17,weatherlink.com 1.10,2013-02-19 02:31:00,
2013-02-18 20:46:00,27.0,26.0,29.52,West,275,3.0,5.0,94,0.00,,,0.17,weatherlink.com 1.10,2013-02-19 02:46:00,
2013-02-18 21:01:00,26.0,24.0,29.51,WSW,258,2.0,5.0,92,0.00,,,0.17,weatherlink.com 1.10,2013-02-19 03:01:00,
2013-02-18 21:16:00,24.5,22.0,29.52,WNW,292,1.0,6.0,91,0.00,,,0.17,weatherlink.com 1.10,2013-02-19 03:16:00,
2013-02-18 21:31:00,23.6,21.0,29.54,WNW,295,3.0,4.0,90,0.00,,,0.17,weatherlink.com 1.10,2013-02-19 03:31:00,
2013-02-18 21:46:00,22.6,20.0,29.55,West,277,2.0,6.0,90,0.00,,,0.17,weatherlink.com 1.10,2013-02-19 03:46:00,
2013-02-18 22:01:00,22.3,20.0,29.56,WNW,290,2.0,5.0,90,0.00,,,0.17,weatherlink.com 1.10,2013-02-19 04:01:00,
2013-02-18 22:16:00,21.1,18.0,29.57,NW,319,3.0,6.0,89,0.00,,,0.17,weatherlink.com 1.10,2013-02-19 04:16:00,
2013-02-18 22:32:00,20.2,18.0,29.58,West,275,2.0,5.0,89,0.00,,,0.17,weatherlink.com 1.10,2013-02-19 04:32:00,
2013-02-18 22:47:00,19.7,17.0,29.58,West,277,2.0,5.0,89,0.00,,,0.17,weatherlink.com 1.10,2013-02-19 04:47:00,
2013-02-18 23:02:00,19.4,16.0,29.59,West,275,4.0,7.0,88,0.00,,,0.17,weatherlink.com 1.10,2013-02-19 05:02:00,
2013-02-18 23:17:00,19.1,16.0,29.60,West,276,2.0,6.0,88,0.00,,,0.17,weatherlink.com 1.10,2013-02-19 05:17:00,
2013-02-18 23:32:00,19.2,16.0,29.60,WNW,282,1.0,6.0,88,0.00,,,0.17,weatherlink.com 1.10,2013-02-19 05:32:00,
2013-02-18 23:47:00,19.0,16.0,29.60,West,267,3.0,6.0,88,0.00,,,0.17,weatherlink.com 1.10,2013-02-19 05:47:00,